createdAt,value
2022-08-05T00:03:57.213Z,59.86
2022-08-05T00:04:10.430Z,59.86
2022-08-05T00:09:13.112Z,60.42
2022-08-05T00:12:56.774Z,60.53
2022-08-05T00:14:12.901Z,60.53
2022-08-05T00:19:11.017Z,60.54
2022-08-05T00:24:16.260Z,61.43
2022-08-05T00:29:10.646Z,61.31
2022-08-05T00:29:56.713Z,61.73
2022-08-05T00:32:25.767Z,61.73
2022-08-05T00:34:53.693Z,61.73
2022-08-05T00:38:03.943Z,61.81
2022-08-05T00:39:14.019Z,61.81
2022-08-05T00:43:52.533Z,62.07
2022-08-05T00:44:10.693Z,62.07
2022-08-05T00:49:14.006Z,62.14
2022-08-05T00:54:11.003Z,62.17
2022-08-05T00:57:59.299Z,62.46
2022-08-05T00:59:10.473Z,62.46
2022-08-05T01:01:42.117Z,62.85
2022-08-05T01:02:57.661Z,62.85
2022-08-05T01:04:14.102Z,62.85
2022-08-05T01:06:32.307Z,62.67
2022-08-05T01:09:10.482Z,62.67
2022-08-05T01:14:17.056Z,62.73
2022-08-05T01:14:34.458Z,62.73
2022-08-05T01:14:46.086Z,62.73
2022-08-05T01:19:36.622Z,63.21
2022-08-05T01:24:22.450Z,63.32
2022-08-05T01:29:16.513Z,63.28
2022-08-05T01:31:00.393Z,63.42
2022-08-05T01:34:14.436Z,63.42
2022-08-05T01:39:12.586Z,63.59
2022-08-05T01:41:38.493Z,63.88
2022-08-05T01:44:12.292Z,63.88
2022-08-05T01:44:18.370Z,63.88
2022-08-05T01:44:19.884Z,63.88
2022-08-05T01:49:23.315Z,63.85
2022-08-05T01:53:57.468Z,64.43
2022-08-05T01:54:14.196Z,64.43
2022-08-05T01:58:13.647Z,64.45
2022-08-05T01:59:15.768Z,64.45
2022-08-05T02:00:34.322Z,64.45
2022-08-05T02:02:28.794Z,64.45
2022-08-05T02:04:18.510Z,64.45
2022-08-05T02:04:25.557Z,64.45
2022-08-05T02:05:46.721Z,64.73
2022-08-05T02:07:21.567Z,64.73
2022-08-05T02:09:10.891Z,64.73
2022-08-05T02:09:20.683Z,64.73
2022-08-05T02:12:54.538Z,65.01
2022-08-05T02:14:19.266Z,65.01
2022-08-05T02:14:26.264Z,65.01
2022-08-05T02:14:32.033Z,65.01
2022-08-05T02:16:16.604Z,65.18
2022-08-05T02:18:34.857Z,65.18
2022-08-05T02:19:17.926Z,65.18
2022-08-05T02:20:10.783Z,65.33
2022-08-05T02:23:06.673Z,65.33
2022-08-05T02:24:17.836Z,65.33
2022-08-05T02:24:25.540Z,65.33
2022-08-05T02:26:05.232Z,65.59
2022-08-05T02:27:59.172Z,65.59
2022-08-05T02:29:21.632Z,65.59
2022-08-05T02:29:58.413Z,65.59
2022-08-05T02:29:59.828Z,65.59
2022-08-05T02:30:56.612Z,65.68
2022-08-05T02:33:08.918Z,65.68
2022-08-05T02:34:10.876Z,65.68
2022-08-05T02:39:12.450Z,66.40
2022-08-05T02:44:13.508Z,66.64
2022-08-05T02:49:12.328Z,66.59
2022-08-05T02:52:32.507Z,66.80
2022-08-05T02:54:34.431Z,66.80
2022-08-05T02:58:09.882Z,67.24
2022-08-05T02:59:11.690Z,67.24
2022-08-05T03:04:14.363Z,67.32
2022-08-05T03:04:18.453Z,67.32
2022-08-05T03:09:04.285Z,67.43
2022-08-05T03:09:11.314Z,67.43
2022-08-05T03:13:27.658Z,68.26
2022-08-05T03:14:13.532Z,68.26
2022-08-05T03:18:29.949Z,67.90
2022-08-05T03:19:12.885Z,67.90
2022-08-05T03:20:38.558Z,68.10
2022-08-05T03:22:32.830Z,68.10
2022-08-05T03:24:11.389Z,68.10
2022-08-05T03:24:30.450Z,68.10
2022-08-05T03:28:10.359Z,68.36
2022-08-05T03:29:12.405Z,68.36
2022-08-05T03:32:15.883Z,68.57
2022-08-05T03:34:10.524Z,68.57
2022-08-05T03:34:50.568Z,68.57
2022-08-05T03:36:38.722Z,68.55
2022-08-05T03:39:20.173Z,68.55
2022-08-05T03:39:28.727Z,68.55
2022-08-05T03:42:41.649Z,68.68
2022-08-05T03:44:12.006Z,68.68
2022-08-05T03:49:10.450Z,68.79
2022-08-05T03:55:34.153Z,68.52
2022-08-05T03:55:52.581Z,68.52
2022-08-05T03:59:16.673Z,68.01
2022-08-05T03:59:25.132Z,68.01
2022-08-05T03:59:47.080Z,68.01
2022-08-05T04:04:13.800Z,67.66
2022-08-05T04:04:21.318Z,67.66
2022-08-05T04:07:02.929Z,67.11
2022-08-05T04:09:11.645Z,67.11
2022-08-05T04:09:32.677Z,67.11
2022-08-05T04:12:02.635Z,66.94
2022-08-05T04:13:55.753Z,66.94
2022-08-05T04:14:10.708Z,66.94
2022-08-05T04:17:08.087Z,66.79
2022-08-05T04:19:10.572Z,66.79
2022-08-05T04:19:11.856Z,66.79
2022-08-05T04:24:19.489Z,66.27
2022-08-05T04:26:47.709Z,66.07
2022-08-05T04:28:50.863Z,66.07
2022-08-05T04:29:10.489Z,66.07
2022-08-05T04:33:11.835Z,65.83
2022-08-05T04:34:31.434Z,65.83
2022-08-05T04:39:10.822Z,65.69
2022-08-05T04:44:10.395Z,65.54
2022-08-05T04:47:38.620Z,65.12
2022-08-05T04:49:14.582Z,65.12
2022-08-05T04:52:00.556Z,64.78
2022-08-05T04:53:43.503Z,64.78
2022-08-05T04:54:12.174Z,64.78
2022-08-05T04:56:14.605Z,64.48
2022-08-05T04:59:22.023Z,64.48
2022-08-05T05:04:16.764Z,64.18
2022-08-05T05:04:51.667Z,63.85
2022-08-05T05:06:51.945Z,63.85
2022-08-05T05:09:05.633Z,63.85
2022-08-05T05:09:11.003Z,63.85
2022-08-05T05:14:15.232Z,63.71
2022-08-05T05:14:54.913Z,63.27
2022-08-05T05:16:48.396Z,63.27
2022-08-05T05:19:19.366Z,63.27
2022-08-05T05:23:19.849Z,62.81
2022-08-05T05:24:10.380Z,62.81
2022-08-05T05:27:41.487Z,62.13
2022-08-05T05:29:14.745Z,62.13
2022-08-05T05:34:11.716Z,61.34
2022-08-05T05:38:53.667Z,60.83
2022-08-05T05:39:11.082Z,60.83
2022-08-05T05:44:00.268Z,60.27
2022-08-05T05:44:37.499Z,60.27
2022-08-05T05:49:22.983Z,59.70
2022-08-05T05:53:28.111Z,59.32
2022-08-05T05:54:11.624Z,59.32
2022-08-05T05:57:19.247Z,58.83
2022-08-05T05:59:10.339Z,58.83
2022-08-05T06:01:57.569Z,58.40
2022-08-05T06:04:01.608Z,58.40
2022-08-05T06:04:12.724Z,58.40
2022-08-05T06:09:16.990Z,57.76
2022-08-05T06:14:10.639Z,57.26
2022-08-05T06:14:11.193Z,57.26
2022-08-05T06:16:42.372Z,56.51
2022-08-05T06:18:53.632Z,56.51
2022-08-05T06:19:10.321Z,56.51
2022-08-05T06:24:12.394Z,55.72
2022-08-05T06:28:11.135Z,55.36
2022-08-05T06:29:25.503Z,55.36
2022-08-05T06:29:45.464Z,55.36
2022-08-05T06:34:06.913Z,54.52
2022-08-05T06:34:10.348Z,54.52
2022-08-05T06:38:57.883Z,52.67
2022-08-05T06:39:10.953Z,52.67
2022-08-05T06:42:06.421Z,51.88
2022-08-05T06:44:10.671Z,51.88
2022-08-05T06:46:51.023Z,50.91
2022-08-05T06:49:10.982Z,50.91
2022-08-05T06:52:00.675Z,50.02
2022-08-05T06:54:10.311Z,50.02
2022-08-05T06:54:18.941Z,50.02
2022-08-05T06:54:19.697Z,50.02
2022-08-05T06:59:13.451Z,48.64
2022-08-05T07:00:24.620Z,47.42
2022-08-05T07:04:10.709Z,47.42
2022-08-05T07:09:10.613Z,46.33
2022-08-05T07:14:29.522Z,44.82
2022-08-05T07:19:10.268Z,44.40
2022-08-05T07:24:11.577Z,43.78
2022-08-05T07:29:11.317Z,42.81
2022-08-05T07:34:13.874Z,42.16
2022-08-05T07:39:50.388Z,41.23
2022-08-05T07:44:18.814Z,39.46
2022-08-05T07:49:10.698Z,37.59
2022-08-05T07:54:11.525Z,35.45
2022-08-05T07:59:10.909Z,34.11
2022-08-05T08:04:12.397Z,33.40
2022-08-05T08:09:10.447Z,32.08
2022-08-05T08:14:11.085Z,31.96
2022-08-05T08:20:10.307Z,30.29
2022-08-05T08:24:13.581Z,29.46
2022-08-05T08:30:04.570Z,29.59
2022-08-05T08:34:10.802Z,29.39
2022-08-05T08:39:15.238Z,27.95
2022-08-05T08:45:21.243Z,28.29
2022-08-05T08:50:22.974Z,28.37
2022-08-05T08:54:10.377Z,28.32
2022-08-05T08:59:14.923Z,28.23
2022-08-05T09:04:12.680Z,27.69
2022-08-05T09:09:10.465Z,26.89
2022-08-05T09:14:57.619Z,26.68
2022-08-05T09:19:11.974Z,27.82
2022-08-05T09:24:12.164Z,28.53
2022-08-05T09:29:17.578Z,28.23
2022-08-05T09:34:11.133Z,27.62
2022-08-05T09:39:18.108Z,27.27
2022-08-05T09:44:11.197Z,26.90
2022-08-05T09:49:22.200Z,27.68
2022-08-05T09:54:10.532Z,27.42
2022-08-05T09:59:17.033Z,27.12
2022-08-05T10:04:12.789Z,28.45
2022-08-05T10:09:27.477Z,27.49
2022-08-05T10:14:20.767Z,27.48
2022-08-05T10:19:11.787Z,29.06
2022-08-05T10:24:12.430Z,28.08
2022-08-05T10:29:10.408Z,28.24
2022-08-05T10:34:10.562Z,27.93
2022-08-05T10:39:25.260Z,28.04
2022-08-05T10:49:16.552Z,29.00
2022-08-05T10:54:23.403Z,28.97
2022-08-05T10:59:12.819Z,29.22
2022-08-05T11:04:14.153Z,29.87
2022-08-05T11:09:16.441Z,30.30
2022-08-05T11:14:11.594Z,30.69
2022-08-05T11:20:17.830Z,30.81
2022-08-05T11:24:14.763Z,31.59
2022-08-05T11:29:30.216Z,32.02
2022-08-05T11:34:14.727Z,32.81
2022-08-05T11:39:11.349Z,32.14
2022-08-05T11:44:40.817Z,32.50
2022-08-05T11:49:13.135Z,32.89
2022-08-05T11:54:11.570Z,33.04
2022-08-05T11:59:14.905Z,32.89
2022-08-05T12:04:12.044Z,32.62
2022-08-05T12:09:53.717Z,33.02
2022-08-05T12:14:10.564Z,32.79
2022-08-05T12:20:26.287Z,33.26
2022-08-05T12:24:13.303Z,33.71
2022-08-05T12:29:15.961Z,33.97
2022-08-05T12:34:20.265Z,34.00
2022-08-05T12:39:10.683Z,33.98
2022-08-05T12:44:14.446Z,34.73
2022-08-05T12:49:14.232Z,34.60
2022-08-05T12:54:14.740Z,34.46
2022-08-05T12:59:14.037Z,34.08
2022-08-05T13:04:11.283Z,34.24
2022-08-05T13:09:12.547Z,34.92
2022-08-05T13:14:14.983Z,34.76
2022-08-05T13:19:12.597Z,34.51
2022-08-05T13:24:10.407Z,34.64
2022-08-05T13:29:11.113Z,33.98
2022-08-05T13:34:23.084Z,33.62
2022-08-05T13:40:14.394Z,34.03
2022-08-05T13:44:10.216Z,34.13
2022-08-05T13:49:12.164Z,34.08
2022-08-05T13:51:54.041Z,34.20
2022-08-05T13:54:12.428Z,34.20
2022-08-05T13:58:52.911Z,34.10
2022-08-05T13:59:19.990Z,34.10
2022-08-05T14:03:33.616Z,33.88
2022-08-05T14:04:20.042Z,33.88
2022-08-05T14:08:02.651Z,34.34
2022-08-05T14:09:10.125Z,34.34
2022-08-05T14:12:04.086Z,34.67
2022-08-05T14:13:54.910Z,34.67
2022-08-05T14:14:10.168Z,34.67
2022-08-05T14:19:10.228Z,34.60
2022-08-05T14:22:08.452Z,34.15
2022-08-05T14:24:11.301Z,34.15
2022-08-05T14:26:38.272Z,34.33
2022-08-05T14:29:16.674Z,34.33
2022-08-05T14:32:02.999Z,34.34
2022-08-05T14:34:11.891Z,34.34
2022-08-05T14:36:32.336Z,34.90
2022-08-05T14:39:11.036Z,34.90
2022-08-05T14:42:16.732Z,34.67
2022-08-05T14:44:20.687Z,34.67
2022-08-05T14:44:30.116Z,34.67
2022-08-05T14:46:35.533Z,34.79
2022-08-05T14:49:10.327Z,34.79
2022-08-05T14:50:18.214Z,34.74
2022-08-05T14:53:31.377Z,34.74
2022-08-05T14:54:28.386Z,34.74
2022-08-05T14:55:56.300Z,34.65
2022-08-05T14:57:58.117Z,34.65
2022-08-05T14:59:10.488Z,34.65
2022-08-05T15:04:11.461Z,34.91
2022-08-05T15:04:50.135Z,34.90
2022-08-05T15:06:30.298Z,34.90
2022-08-05T15:09:10.154Z,34.90
2022-08-05T15:14:10.349Z,35.14
2022-08-05T15:19:14.561Z,35.16
2022-08-05T15:24:10.989Z,35.67
2022-08-05T15:29:10.186Z,35.68
2022-08-05T15:34:31.338Z,35.78
2022-08-05T15:40:59.325Z,35.94
2022-08-05T15:44:11.414Z,36.01
2022-08-05T15:49:13.344Z,36.28
2022-08-05T15:54:10.220Z,36.76
2022-08-05T15:59:21.691Z,36.89
2022-08-05T16:04:10.550Z,36.94
2022-08-05T16:09:10.201Z,36.96
2022-08-05T16:14:17.431Z,37.34
2022-08-05T16:19:10.955Z,37.75
2022-08-05T16:24:12.777Z,37.90
2022-08-05T16:29:10.767Z,38.09
2022-08-05T16:34:10.129Z,38.47
2022-08-05T16:39:11.141Z,38.39
2022-08-05T16:44:14.565Z,38.55
2022-08-05T16:49:11.275Z,38.51
2022-08-05T16:54:17.515Z,38.61
2022-08-05T16:59:10.277Z,38.52
2022-08-05T17:04:10.489Z,38.57
2022-08-05T17:09:10.138Z,38.56
2022-08-05T17:14:12.997Z,38.68
2022-08-05T17:19:10.879Z,39.00
2022-08-05T17:24:28.315Z,39.08
2022-08-05T17:29:12.084Z,39.32
2022-08-05T17:34:10.059Z,39.55
2022-08-05T17:39:23.665Z,39.75
2022-08-05T17:44:11.133Z,40.04
2022-08-05T17:49:10.179Z,40.17
2022-08-05T17:54:10.056Z,40.45
2022-08-05T17:59:10.920Z,40.52
2022-08-05T18:04:11.967Z,40.84
2022-08-05T18:07:05.574Z,41.23
2022-08-05T18:09:10.289Z,41.23
2022-08-05T18:12:45.061Z,41.44
2022-08-05T18:14:13.518Z,41.44
2022-08-05T18:14:58.319Z,41.95
2022-08-05T18:19:10.373Z,41.95
2022-08-05T18:22:20.805Z,42.82
2022-08-05T18:24:10.172Z,42.82
2022-08-05T18:28:17.107Z,43.64
2022-08-05T18:29:10.547Z,43.64
2022-08-05T18:33:00.010Z,44.64
2022-08-05T18:34:12.655Z,44.64
2022-08-05T18:35:59.738Z,45.63
2022-08-05T18:37:44.354Z,45.63
2022-08-05T18:39:22.596Z,45.63
2022-08-05T18:41:56.222Z,46.42
2022-08-05T18:44:10.793Z,46.42
2022-08-05T18:47:12.545Z,46.79
2022-08-05T18:49:19.947Z,46.79
2022-08-05T18:50:20.931Z,47.74
2022-08-05T18:54:10.265Z,47.74
2022-08-05T18:59:44.438Z,48.07
2022-08-05T19:00:03.146Z,47.49
2022-08-05T19:02:27.446Z,47.49
2022-08-05T19:04:12.356Z,47.49
2022-08-05T19:06:34.170Z,47.31
2022-08-05T19:09:10.569Z,47.31
2022-08-05T19:09:48.800Z,47.31
2022-08-05T19:13:47.881Z,47.58
2022-08-05T19:14:53.436Z,47.58
2022-08-05T19:17:28.527Z,48.01
2022-08-05T19:19:10.259Z,48.01
2022-08-05T19:19:27.945Z,48.01
2022-08-05T19:24:12.489Z,48.14
2022-08-05T19:29:10.017Z,48.21
2022-08-05T19:30:48.943Z,48.77
2022-08-05T19:34:10.257Z,48.77
2022-08-05T19:39:10.334Z,49.14
2022-08-05T19:44:13.518Z,49.46
2022-08-05T19:49:12.440Z,49.83
2022-08-05T19:54:21.665Z,50.17
2022-08-05T19:59:51.243Z,50.77
2022-08-05T20:04:09.989Z,51.04
2022-08-05T20:09:14.066Z,51.31
2022-08-05T20:14:14.259Z,51.87
2022-08-05T20:19:10.210Z,52.08
2022-08-05T20:24:11.450Z,52.71
2022-08-05T20:29:26.807Z,53.25
2022-08-05T20:34:10.732Z,53.53
2022-08-05T20:39:13.220Z,53.56
2022-08-05T20:44:17.876Z,53.69
2022-08-05T20:49:10.219Z,53.80
2022-08-05T20:54:14.140Z,53.54
2022-08-05T20:59:19.306Z,53.53
2022-08-05T21:04:10.511Z,53.62
2022-08-05T21:09:10.209Z,53.69
2022-08-05T21:14:10.117Z,53.61
2022-08-05T21:19:10.067Z,54.01
2022-08-05T21:24:12.883Z,54.09
2022-08-05T21:29:12.604Z,54.19
2022-08-05T21:34:11.081Z,54.32
2022-08-05T21:39:10.315Z,54.68
2022-08-05T21:44:10.237Z,54.96
2022-08-05T21:49:48.527Z,55.19
2022-08-05T21:54:10.641Z,55.30
2022-08-05T21:59:23.866Z,55.45
2022-08-05T22:04:13.414Z,55.80
2022-08-05T22:09:14.798Z,55.83
2022-08-05T22:14:33.277Z,56.30
2022-08-05T22:19:15.151Z,56.38
2022-08-05T22:24:40.272Z,56.73
2022-08-05T22:29:10.249Z,57.26
2022-08-05T22:34:10.603Z,57.43
2022-08-05T22:39:13.575Z,57.68
2022-08-05T22:44:10.043Z,58.05
2022-08-05T22:50:17.177Z,58.73
2022-08-05T22:54:10.411Z,58.93
2022-08-05T22:54:15.779Z,58.93
2022-08-05T22:59:42.604Z,59.40
2022-08-05T23:04:10.704Z,59.57
2022-08-05T23:08:18.440Z,59.82
2022-08-05T23:09:28.059Z,59.82
2022-08-05T23:14:10.140Z,60.24
2022-08-05T23:17:24.257Z,59.92
2022-08-05T23:19:09.871Z,59.92
2022-08-05T23:24:11.368Z,59.92
2022-08-05T23:29:10.648Z,60.00
2022-08-05T23:34:09.901Z,60.10
2022-08-05T23:39:17.387Z,60.33
2022-08-05T23:44:10.519Z,60.57
2022-08-05T23:47:15.859Z,60.67
2022-08-05T23:49:17.033Z,60.67
2022-08-05T23:54:11.371Z,61.12
2022-08-05T23:59:10.366Z,61.78
